Aérodrome :
LOGIN :

S'inscrire | Disclaimer

   EN    FR    IT 

 










Légende :    VFR   VFR Marginal   IFR   IFR Intensif   IFR Très Intensif
Visi : 
Plafond : 
>= 8 km
>= 3000ft
5 à 8 km
1000 à 3000 ft
1500m à 5 km
500 à 1000 ft
800 à 1500m
200 à 500 ft
< 800m
< 200 ft
Symboles :   Orages  Brouillard  Fortes neiges  Fortes précipitations  Vent > 20 kt
SIGMETs :   Divers  Orages  Givrage  Turbulence  Onde Orograph.  Cendres Volcan.







- Altitude de l'aérodrome : 194 ft
- Code IATA : IEG


EPZG - Zielona Gora Babimost

DERNIER METAR :
  • 211300Z VRB03KT 9999 SCT043 23/11 Q1027

METARs EXPIRÉS :
  • 211230Z VRB02KT 9999 SCT042 23/12 Q1027
  • 211200Z VRB05KT 9999 SCT037 21/12 Q1027
  • 211130Z VRB03KT 9999 SCT033 21/12 Q1027
  • 211100Z 28004KT 230V310 9999 SCT030 20/13 Q1027
  • 211030Z 24006KT 200V300 9999 BKN027 20/13 Q1027

TAF TAF EPZG
Valide du 21 à 12h jusqu'au 21 à 21h UTC


211130Z 2112/2121 24004KT 9999 SCT030
TEMPO 2112/2117 BKN027CB
BECMG 2119/2121 3000 BR
Pas de NOTAMs connus pour ce terrain.



MET'MAP, la Météo Aéronautique d'un coup d'oeil ! - Copyright ORBIFLY Décembre 2007 - Disclaimer

ORBIFLY MET'MAP TEAM :

Programmation & Développement : Alexandra Zaïnal
Conception & Développement : Baudouin d'Aumeries
Co-Programmation & Développement : Marc-Olivier Méhu
Soutien technique & logistique : Manuel Goepfert

Contact : metmap@orbifly.com




SOURCES & CREDITS :

   NOAA